sensor_id;sensor_type;location;lat;lon;timestamp;P1;durP1;ratioP1;P2;durP2;ratioP2
20441;SDS011;10380;52.102;20.614;2024-02-23T00:00:38;8.23;;;5.83;;
20441;SDS011;10380;52.102;20.614;2024-02-23T00:03:05;7.33;;;5.73;;
20441;SDS011;10380;52.102;20.614;2024-02-23T00:05:34;8.10;;;6.50;;
20441;SDS011;10380;52.102;20.614;2024-02-23T00:08:01;7.63;;;5.73;;
20441;SDS011;10380;52.102;20.614;2024-02-23T00:10:28;7.57;;;5.97;;
20441;SDS011;10380;52.102;20.614;2024-02-23T00:12:55;9.67;;;6.40;;
20441;SDS011;10380;52.102;20.614;2024-02-23T00:15:22;7.60;;;5.87;;
20441;SDS011;10380;52.102;20.614;2024-02-23T00:17:51;8.90;;;5.80;;
20441;SDS011;10380;52.102;20.614;2024-02-23T00:20:18;9.37;;;6.33;;
20441;SDS011;10380;52.102;20.614;2024-02-23T00:22:45;8.33;;;5.80;;
20441;SDS011;10380;52.102;20.614;2024-02-23T00:25:12;8.20;;;6.13;;
20441;SDS011;10380;52.102;20.614;2024-02-23T00:27:39;9.17;;;6.07;;
20441;SDS011;10380;52.102;20.614;2024-02-23T00:30:08;9.53;;;6.17;;
20441;SDS011;10380;52.102;20.614;2024-02-23T00:32:35;6.50;;;5.60;;
20441;SDS011;10380;52.102;20.614;2024-02-23T00:35:02;8.30;;;5.67;;
20441;SDS011;10380;52.102;20.614;2024-02-23T00:37:29;6.80;;;6.07;;
20441;SDS011;10380;52.102;20.614;2024-02-23T00:40:02;9.13;;;6.23;;
20441;SDS011;10380;52.102;20.614;2024-02-23T00:42:30;7.47;;;6.10;;
20441;SDS011;10380;52.102;20.614;2024-02-23T00:44:57;6.77;;;5.67;;
20441;SDS011;10380;52.102;20.614;2024-02-23T00:47:24;9.70;;;6.30;;
20441;SDS011;10380;52.102;20.614;2024-02-23T00:49:51;9.10;;;5.40;;
20441;SDS011;10380;52.102;20.614;2024-02-23T00:52:18;13.77;;;5.43;;
20441;SDS011;10380;52.102;20.614;2024-02-23T00:54:46;8.10;;;6.20;;
20441;SDS011;10380;52.102;20.614;2024-02-23T00:57:12;7.60;;;5.43;;
20441;SDS011;10380;52.102;20.614;2024-02-23T00:59:39;7.63;;;6.07;;
20441;SDS011;10380;52.102;20.614;2024-02-23T01:02:06;6.87;;;5.90;;
20441;SDS011;10380;52.102;20.614;2024-02-23T01:04:33;6.23;;;5.57;;
20441;SDS011;10380;52.102;20.614;2024-02-23T01:07:00;7.43;;;5.07;;
20441;SDS011;10380;52.102;20.614;2024-02-23T01:09:27;6.37;;;5.17;;
20441;SDS011;10380;52.102;20.614;2024-02-23T01:11:54;7.53;;;5.33;;
20441;SDS011;10380;52.102;20.614;2024-02-23T01:14:21;7.03;;;5.20;;
20441;SDS011;10380;52.102;20.614;2024-02-23T01:16:49;7.07;;;5.40;;
20441;SDS011;10380;52.102;20.614;2024-02-23T01:19:16;7.30;;;5.47;;
20441;SDS011;10380;52.102;20.614;2024-02-23T01:21:44;7.03;;;5.17;;
20441;SDS011;10380;52.102;20.614;2024-02-23T01:24:11;8.30;;;5.53;;
20441;SDS011;10380;52.102;20.614;2024-02-23T01:26:38;8.10;;;5.73;;
20441;SDS011;10380;52.102;20.614;2024-02-23T01:29:08;7.63;;;5.00;;
20441;SDS011;10380;52.102;20.614;2024-02-23T01:31:35;6.77;;;4.83;;
20441;SDS011;10380;52.102;20.614;2024-02-23T01:34:02;6.70;;;5.10;;
20441;SDS011;10380;52.102;20.614;2024-02-23T01:36:29;9.60;;;5.87;;
20441;SDS011;10380;52.102;20.614;2024-02-23T01:38:56;6.83;;;5.60;;
20441;SDS011;10380;52.102;20.614;2024-02-23T01:41:23;6.70;;;5.10;;
20441;SDS011;10380;52.102;20.614;2024-02-23T01:43:50;6.47;;;5.10;;
20441;SDS011;10380;52.102;20.614;2024-02-23T01:46:17;5.70;;;4.63;;
20441;SDS011;10380;52.102;20.614;2024-02-23T01:48:45;6.03;;;4.67;;
20441;SDS011;10380;52.102;20.614;2024-02-23T01:51:12;6.83;;;5.73;;
20441;SDS011;10380;52.102;20.614;2024-02-23T01:53:40;5.83;;;4.57;;
20441;SDS011;10380;52.102;20.614;2024-02-23T01:56:07;5.53;;;4.60;;
20441;SDS011;10380;52.102;20.614;2024-02-23T01:58:35;4.80;;;4.27;;
20441;SDS011;10380;52.102;20.614;2024-02-23T02:01:03;6.90;;;4.87;;
20441;SDS011;10380;52.102;20.614;2024-02-23T02:03:31;6.57;;;4.93;;
20441;SDS011;10380;52.102;20.614;2024-02-23T02:05:59;5.67;;;4.60;;
20441;SDS011;10380;52.102;20.614;2024-02-23T02:08:27;7.37;;;4.53;;
20441;SDS011;10380;52.102;20.614;2024-02-23T02:10:55;4.97;;;4.47;;
20441;SDS011;10380;52.102;20.614;2024-02-23T02:13:22;4.70;;;4.20;;
20441;SDS011;10380;52.102;20.614;2024-02-23T02:15:49;8.33;;;4.87;;
20441;SDS011;10380;52.102;20.614;2024-02-23T02:18:16;6.50;;;5.27;;
20441;SDS011;10380;52.102;20.614;2024-02-23T02:20:53;6.00;;;4.33;;
20441;SDS011;10380;52.102;20.614;2024-02-23T02:23:21;5.57;;;4.70;;
20441;SDS011;10380;52.102;20.614;2024-02-23T02:25:55;5.70;;;4.43;;
20441;SDS011;10380;52.102;20.614;2024-02-23T02:28:23;5.17;;;4.10;;
20441;SDS011;10380;52.102;20.614;2024-02-23T02:30:51;6.47;;;4.87;;
20441;SDS011;10380;52.102;20.614;2024-02-23T02:33:19;5.83;;;4.70;;
20441;SDS011;10380;52.102;20.614;2024-02-23T02:35:47;5.20;;;4.20;;
20441;SDS011;10380;52.102;20.614;2024-02-23T02:38:16;4.43;;;3.97;;
20441;SDS011;10380;52.102;20.614;2024-02-23T02:40:43;7.00;;;4.07;;
20441;SDS011;10380;52.102;20.614;2024-02-23T02:43:10;5.67;;;4.50;;
20441;SDS011;10380;52.102;20.614;2024-02-23T02:45:37;6.43;;;4.70;;
20441;SDS011;10380;52.102;20.614;2024-02-23T02:48:04;5.33;;;4.20;;
20441;SDS011;10380;52.102;20.614;2024-02-23T02:50:31;4.03;;;3.63;;
20441;SDS011;10380;52.102;20.614;2024-02-23T02:52:59;6.03;;;4.20;;
20441;SDS011;10380;52.102;20.614;2024-02-23T02:55:25;5.97;;;3.87;;
20441;SDS011;10380;52.102;20.614;2024-02-23T02:57:53;6.33;;;4.17;;
20441;SDS011;10380;52.102;20.614;2024-02-23T03:00:20;6.33;;;3.83;;
20441;SDS011;10380;52.102;20.614;2024-02-23T03:02:47;6.00;;;4.30;;
20441;SDS011;10380;52.102;20.614;2024-02-23T03:05:14;5.03;;;4.20;;
20441;SDS011;10380;52.102;20.614;2024-02-23T03:07:41;6.70;;;4.40;;
20441;SDS011;10380;52.102;20.614;2024-02-23T03:10:08;4.43;;;3.90;;
20441;SDS011;10380;52.102;20.614;2024-02-23T03:12:35;6.47;;;4.03;;
20441;SDS011;10380;52.102;20.614;2024-02-23T03:15:02;6.73;;;4.07;;
20441;SDS011;10380;52.102;20.614;2024-02-23T03:17:29;5.77;;;4.20;;
20441;SDS011;10380;52.102;20.614;2024-02-23T03:19:56;5.40;;;4.27;;
20441;SDS011;10380;52.102;20.614;2024-02-23T03:22:24;6.13;;;4.33;;
20441;SDS011;10380;52.102;20.614;2024-02-23T03:24:51;4.67;;;4.03;;
20441;SDS011;10380;52.102;20.614;2024-02-23T03:27:19;5.03;;;4.33;;
20441;SDS011;10380;52.102;20.614;2024-02-23T03:29:47;5.10;;;4.23;;
20441;SDS011;10380;52.102;20.614;2024-02-23T03:32:14;5.90;;;4.43;;
20441;SDS011;10380;52.102;20.614;2024-02-23T03:34:41;4.67;;;4.13;;
20441;SDS011;10380;52.102;20.614;2024-02-23T03:37:09;5.63;;;4.43;;
20441;SDS011;10380;52.102;20.614;2024-02-23T03:39:36;5.50;;;4.13;;
20441;SDS011;10380;52.102;20.614;2024-02-23T03:42:04;5.33;;;3.87;;
20441;SDS011;10380;52.102;20.614;2024-02-23T03:44:31;4.97;;;4.20;;
20441;SDS011;10380;52.102;20.614;2024-02-23T03:46:58;5.33;;;4.23;;
20441;SDS011;10380;52.102;20.614;2024-02-23T03:49:25;4.37;;;3.77;;
20441;SDS011;10380;52.102;20.614;2024-02-23T03:51:53;4.30;;;3.90;;
20441;SDS011;10380;52.102;20.614;2024-02-23T03:54:20;5.80;;;4.50;;
20441;SDS011;10380;52.102;20.614;2024-02-23T03:56:47;6.37;;;4.03;;
20441;SDS011;10380;52.102;20.614;2024-02-23T03:59:14;5.27;;;4.03;;
20441;SDS011;10380;52.102;20.614;2024-02-23T04:01:41;6.27;;;4.57;;
20441;SDS011;10380;52.102;20.614;2024-02-23T04:04:08;6.23;;;4.23;;
20441;SDS011;10380;52.102;20.614;2024-02-23T04:06:35;4.20;;;3.80;;
20441;SDS011;10380;52.102;20.614;2024-02-23T04:09:03;5.07;;;3.80;;
20441;SDS011;10380;52.102;20.614;2024-02-23T04:11:33;5.47;;;3.80;;
20441;SDS011;10380;52.102;20.614;2024-02-23T04:14:00;5.40;;;4.60;;
20441;SDS011;10380;52.102;20.614;2024-02-23T04:16:27;5.73;;;4.50;;
20441;SDS011;10380;52.102;20.614;2024-02-23T04:18:55;6.10;;;4.13;;
20441;SDS011;10380;52.102;20.614;2024-02-23T04:21:23;5.90;;;4.43;;
20441;SDS011;10380;52.102;20.614;2024-02-23T04:23:50;5.07;;;4.50;;
20441;SDS011;10380;52.102;20.614;2024-02-23T04:26:17;5.37;;;4.13;;
20441;SDS011;10380;52.102;20.614;2024-02-23T04:28:44;6.37;;;4.47;;
20441;SDS011;10380;52.102;20.614;2024-02-23T04:31:11;5.57;;;4.63;;
20441;SDS011;10380;52.102;20.614;2024-02-23T04:33:38;5.07;;;3.97;;
20441;SDS011;10380;52.102;20.614;2024-02-23T04:36:06;7.27;;;4.07;;
20441;SDS011;10380;52.102;20.614;2024-02-23T04:38:33;5.27;;;3.90;;
20441;SDS011;10380;52.102;20.614;2024-02-23T04:41:04;6.40;;;3.90;;
20441;SDS011;10380;52.102;20.614;2024-02-23T04:43:31;8.30;;;5.03;;
20441;SDS011;10380;52.102;20.614;2024-02-23T04:45:59;6.27;;;5.07;;
20441;SDS011;10380;52.102;20.614;2024-02-23T04:48:25;7.23;;;5.13;;
20441;SDS011;10380;52.102;20.614;2024-02-23T04:50:53;7.67;;;4.70;;
20441;SDS011;10380;52.102;20.614;2024-02-23T04:53:20;5.03;;;4.47;;
20441;SDS011;10380;52.102;20.614;2024-02-23T04:55:47;5.43;;;4.43;;
20441;SDS011;10380;52.102;20.614;2024-02-23T04:58:15;6.30;;;5.00;;
20441;SDS011;10380;52.102;20.614;2024-02-23T05:00:42;7.17;;;5.43;;
20441;SDS011;10380;52.102;20.614;2024-02-23T05:03:09;6.00;;;4.27;;
20441;SDS011;10380;52.102;20.614;2024-02-23T05:05:38;6.50;;;4.90;;
20441;SDS011;10380;52.102;20.614;2024-02-23T05:08:06;5.73;;;3.87;;
20441;SDS011;10380;52.102;20.614;2024-02-23T05:10:33;7.23;;;4.80;;
20441;SDS011;10380;52.102;20.614;2024-02-23T05:13:01;4.80;;;3.83;;
20441;SDS011;10380;52.102;20.614;2024-02-23T05:15:29;5.43;;;4.07;;
20441;SDS011;10380;52.102;20.614;2024-02-23T05:17:56;5.80;;;4.77;;
20441;SDS011;10380;52.102;20.614;2024-02-23T05:20:23;6.23;;;4.77;;
20441;SDS011;10380;52.102;20.614;2024-02-23T05:22:50;7.50;;;4.93;;
20441;SDS011;10380;52.102;20.614;2024-02-23T05:25:17;5.63;;;4.33;;
20441;SDS011;10380;52.102;20.614;2024-02-23T05:27:44;5.77;;;4.50;;
20441;SDS011;10380;52.102;20.614;2024-02-23T05:30:12;6.10;;;4.87;;
20441;SDS011;10380;52.102;20.614;2024-02-23T05:32:39;7.40;;;4.83;;
20441;SDS011;10380;52.102;20.614;2024-02-23T05:35:06;5.17;;;3.97;;
20441;SDS011;10380;52.102;20.614;2024-02-23T05:37:35;7.07;;;4.47;;
20441;SDS011;10380;52.102;20.614;2024-02-23T05:40:03;4.83;;;3.90;;
20441;SDS011;10380;52.102;20.614;2024-02-23T05:42:36;6.20;;;5.10;;
20441;SDS011;10380;52.102;20.614;2024-02-23T05:45:06;5.43;;;4.10;;
20441;SDS011;10380;52.102;20.614;2024-02-23T05:47:36;6.40;;;4.40;;
20441;SDS011;10380;52.102;20.614;2024-02-23T05:50:04;7.93;;;4.90;;
20441;SDS011;10380;52.102;20.614;2024-02-23T05:52:31;6.03;;;4.93;;
20441;SDS011;10380;52.102;20.614;2024-02-23T05:54:59;6.57;;;4.73;;
20441;SDS011;10380;52.102;20.614;2024-02-23T05:57:27;6.20;;;4.57;;
20441;SDS011;10380;52.102;20.614;2024-02-23T05:59:54;7.57;;;5.30;;
20441;SDS011;10380;52.102;20.614;2024-02-23T06:02:24;8.33;;;5.00;;
20441;SDS011;10380;52.102;20.614;2024-02-23T06:04:51;9.20;;;4.80;;
20441;SDS011;10380;52.102;20.614;2024-02-23T06:07:18;5.47;;;4.87;;
20441;SDS011;10380;52.102;20.614;2024-02-23T06:09:48;5.77;;;4.63;;
20441;SDS011;10380;52.102;20.614;2024-02-23T06:12:15;6.03;;;5.00;;
20441;SDS011;10380;52.102;20.614;2024-02-23T06:14:42;5.77;;;4.47;;
20441;SDS011;10380;52.102;20.614;2024-02-23T06:17:09;6.93;;;4.70;;
20441;SDS011;10380;52.102;20.614;2024-02-23T06:19:36;6.90;;;5.27;;
20441;SDS011;10380;52.102;20.614;2024-02-23T06:22:03;7.03;;;4.63;;
20441;SDS011;10380;52.102;20.614;2024-02-23T06:24:30;6.97;;;5.17;;
20441;SDS011;10380;52.102;20.614;2024-02-23T06:26:57;6.17;;;5.23;;
20441;SDS011;10380;52.102;20.614;2024-02-23T06:29:26;5.70;;;5.07;;
20441;SDS011;10380;52.102;20.614;2024-02-23T06:31:53;5.67;;;4.90;;
20441;SDS011;10380;52.102;20.614;2024-02-23T06:34:20;6.27;;;4.73;;
20441;SDS011;10380;52.102;20.614;2024-02-23T06:36:47;8.90;;;4.97;;
20441;SDS011;10380;52.102;20.614;2024-02-23T06:39:14;7.00;;;4.63;;
20441;SDS011;10380;52.102;20.614;2024-02-23T06:41:44;6.53;;;5.00;;
20441;SDS011;10380;52.102;20.614;2024-02-23T06:44:12;5.87;;;4.60;;
20441;SDS011;10380;52.102;20.614;2024-02-23T06:46:39;7.50;;;5.50;;
20441;SDS011;10380;52.102;20.614;2024-02-23T06:49:07;7.93;;;4.57;;
20441;SDS011;10380;52.102;20.614;2024-02-23T06:51:35;5.80;;;4.37;;
20441;SDS011;10380;52.102;20.614;2024-02-23T06:54:02;5.63;;;5.03;;
20441;SDS011;10380;52.102;20.614;2024-02-23T06:56:30;6.90;;;4.87;;
20441;SDS011;10380;52.102;20.614;2024-02-23T06:58:57;7.07;;;4.57;;
20441;SDS011;10380;52.102;20.614;2024-02-23T07:01:24;6.47;;;5.13;;
20441;SDS011;10380;52.102;20.614;2024-02-23T07:03:51;6.37;;;4.47;;
20441;SDS011;10380;52.102;20.614;2024-02-23T07:06:18;8.50;;;5.43;;
20441;SDS011;10380;52.102;20.614;2024-02-23T07:08:45;6.10;;;5.00;;
20441;SDS011;10380;52.102;20.614;2024-02-23T07:11:12;6.63;;;5.47;;
20441;SDS011;10380;52.102;20.614;2024-02-23T07:13:42;5.73;;;4.73;;
20441;SDS011;10380;52.102;20.614;2024-02-23T07:16:09;4.87;;;4.37;;
20441;SDS011;10380;52.102;20.614;2024-02-23T07:18:36;7.60;;;4.80;;
20441;SDS011;10380;52.102;20.614;2024-02-23T07:21:03;6.27;;;4.80;;
20441;SDS011;10380;52.102;20.614;2024-02-23T07:23:30;7.60;;;5.03;;
20441;SDS011;10380;52.102;20.614;2024-02-23T07:25:57;8.20;;;4.97;;
20441;SDS011;10380;52.102;20.614;2024-02-23T07:28:24;8.10;;;4.90;;
20441;SDS011;10380;52.102;20.614;2024-02-23T07:30:51;6.03;;;4.57;;
20441;SDS011;10380;52.102;20.614;2024-02-23T07:33:19;5.43;;;4.43;;
20441;SDS011;10380;52.102;20.614;2024-02-23T07:35:47;7.67;;;5.03;;
20441;SDS011;10380;52.102;20.614;2024-02-23T07:38:14;6.70;;;5.10;;
20441;SDS011;10380;52.102;20.614;2024-02-23T07:40:42;6.93;;;4.37;;
20441;SDS011;10380;52.102;20.614;2024-02-23T07:43:08;5.67;;;4.80;;
20441;SDS011;10380;52.102;20.614;2024-02-23T07:45:37;7.40;;;5.30;;
20441;SDS011;10380;52.102;20.614;2024-02-23T07:48:04;5.07;;;4.37;;
20441;SDS011;10380;52.102;20.614;2024-02-23T07:50:32;6.40;;;5.10;;
20441;SDS011;10380;52.102;20.614;2024-02-23T07:52:59;5.93;;;4.30;;
20441;SDS011;10380;52.102;20.614;2024-02-23T07:55:26;7.00;;;4.90;;
20441;SDS011;10380;52.102;20.614;2024-02-23T07:57:53;6.80;;;5.37;;
20441;SDS011;10380;52.102;20.614;2024-02-23T08:00:27;8.27;;;5.17;;
20441;SDS011;10380;52.102;20.614;2024-02-23T08:02:54;7.53;;;5.10;;
20441;SDS011;10380;52.102;20.614;2024-02-23T08:05:23;7.07;;;4.93;;
20441;SDS011;10380;52.102;20.614;2024-02-23T08:07:50;6.03;;;4.40;;
20441;SDS011;10380;52.102;20.614;2024-02-23T08:10:17;8.97;;;5.80;;
20441;SDS011;10380;52.102;20.614;2024-02-23T08:12:44;8.83;;;4.83;;
20441;SDS011;10380;52.102;20.614;2024-02-23T08:15:11;8.03;;;4.77;;
20441;SDS011;10380;52.102;20.614;2024-02-23T08:17:38;7.80;;;5.43;;
20441;SDS011;10380;52.102;20.614;2024-02-23T08:20:06;8.33;;;5.13;;
20441;SDS011;10380;52.102;20.614;2024-02-23T08:22:34;6.10;;;4.90;;
20441;SDS011;10380;52.102;20.614;2024-02-23T08:25:01;6.03;;;5.43;;
20441;SDS011;10380;52.102;20.614;2024-02-23T08:27:29;7.43;;;5.37;;
20441;SDS011;10380;52.102;20.614;2024-02-23T08:29:56;6.77;;;5.23;;
20441;SDS011;10380;52.102;20.614;2024-02-23T08:32:23;8.53;;;5.17;;
20441;SDS011;10380;52.102;20.614;2024-02-23T08:34:50;6.47;;;4.97;;
20441;SDS011;10380;52.102;20.614;2024-02-23T08:37:19;7.63;;;5.23;;
20441;SDS011;10380;52.102;20.614;2024-02-23T08:39:46;9.53;;;5.43;;
20441;SDS011;10380;52.102;20.614;2024-02-23T08:42:13;6.50;;;4.20;;
20441;SDS011;10380;52.102;20.614;2024-02-23T08:44:39;6.47;;;4.73;;
20441;SDS011;10380;52.102;20.614;2024-02-23T08:47:07;8.83;;;5.40;;
20441;SDS011;10380;52.102;20.614;2024-02-23T08:49:34;5.70;;;5.00;;
20441;SDS011;10380;52.102;20.614;2024-02-23T08:52:01;8.30;;;4.70;;
20441;SDS011;10380;52.102;20.614;2024-02-23T08:54:30;6.17;;;5.10;;
20441;SDS011;10380;52.102;20.614;2024-02-23T08:56:57;5.83;;;5.20;;
20441;SDS011;10380;52.102;20.614;2024-02-23T08:59:24;6.53;;;5.13;;
20441;SDS011;10380;52.102;20.614;2024-02-23T09:01:51;5.70;;;5.10;;
20441;SDS011;10380;52.102;20.614;2024-02-23T09:04:18;6.07;;;5.43;;
20441;SDS011;10380;52.102;20.614;2024-02-23T09:06:45;7.57;;;5.50;;
20441;SDS011;10380;52.102;20.614;2024-02-23T09:09:12;6.33;;;5.20;;
20441;SDS011;10380;52.102;20.614;2024-02-23T09:11:39;7.53;;;5.37;;
20441;SDS011;10380;52.102;20.614;2024-02-23T09:14:06;7.77;;;5.50;;
20441;SDS011;10380;52.102;20.614;2024-02-23T09:16:35;7.20;;;5.40;;
20441;SDS011;10380;52.102;20.614;2024-02-23T09:19:02;6.10;;;5.37;;
20441;SDS011;10380;52.102;20.614;2024-02-23T09:21:30;6.83;;;5.20;;
20441;SDS011;10380;52.102;20.614;2024-02-23T09:23:57;7.27;;;5.43;;
20441;SDS011;10380;52.102;20.614;2024-02-23T09:26:24;5.73;;;4.67;;
20441;SDS011;10380;52.102;20.614;2024-02-23T09:28:50;6.37;;;5.40;;
20441;SDS011;10380;52.102;20.614;2024-02-23T09:31:18;5.23;;;4.73;;
20441;SDS011;10380;52.102;20.614;2024-02-23T09:33:46;7.33;;;4.27;;
20441;SDS011;10380;52.102;20.614;2024-02-23T09:36:16;8.20;;;5.20;;
20441;SDS011;10380;52.102;20.614;2024-02-23T09:38:44;8.87;;;5.70;;
20441;SDS011;10380;52.102;20.614;2024-02-23T09:41:15;6.53;;;5.17;;
20441;SDS011;10380;52.102;20.614;2024-02-23T09:43:46;6.77;;;5.13;;
20441;SDS011;10380;52.102;20.614;2024-02-23T09:46:17;7.83;;;5.20;;
20441;SDS011;10380;52.102;20.614;2024-02-23T09:48:45;5.87;;;4.37;;
20441;SDS011;10380;52.102;20.614;2024-02-23T09:51:12;6.50;;;4.60;;
20441;SDS011;10380;52.102;20.614;2024-02-23T09:53:41;6.20;;;5.50;;
20441;SDS011;10380;52.102;20.614;2024-02-23T09:56:09;5.47;;;4.93;;
20441;SDS011;10380;52.102;20.614;2024-02-23T09:58:37;7.20;;;5.17;;
20441;SDS011;10380;52.102;20.614;2024-02-23T10:01:05;18.53;;;6.63;;
20441;SDS011;10380;52.102;20.614;2024-02-23T10:03:35;15.67;;;6.97;;
20441;SDS011;10380;52.102;20.614;2024-02-23T10:06:03;14.63;;;5.83;;
20441;SDS011;10380;52.102;20.614;2024-02-23T10:08:31;9.83;;;5.87;;
20441;SDS011;10380;52.102;20.614;2024-02-23T10:11:00;8.33;;;5.27;;
20441;SDS011;10380;52.102;20.614;2024-02-23T10:13:29;9.97;;;6.77;;
20441;SDS011;10380;52.102;20.614;2024-02-23T10:15:56;6.37;;;5.10;;
20441;SDS011;10380;52.102;20.614;2024-02-23T10:18:40;6.87;;;4.63;;
20441;SDS011;10380;52.102;20.614;2024-02-23T10:21:07;6.97;;;5.13;;
20441;SDS011;10380;52.102;20.614;2024-02-23T10:23:34;7.63;;;5.80;;
20441;SDS011;10380;52.102;20.614;2024-02-23T10:26:06;8.10;;;5.17;;
20441;SDS011;10380;52.102;20.614;2024-02-23T10:28:35;6.13;;;5.17;;
20441;SDS011;10380;52.102;20.614;2024-02-23T10:31:05;5.53;;;4.90;;
20441;SDS011;10380;52.102;20.614;2024-02-23T10:33:37;6.60;;;5.20;;
20441;SDS011;10380;52.102;20.614;2024-02-23T10:36:05;5.37;;;4.70;;
20441;SDS011;10380;52.102;20.614;2024-02-23T10:38:37;8.00;;;5.43;;
20441;SDS011;10380;52.102;20.614;2024-02-23T10:41:06;7.87;;;5.97;;
20441;SDS011;10380;52.102;20.614;2024-02-23T10:43:40;9.07;;;5.67;;
20441;SDS011;10380;52.102;20.614;2024-02-23T10:46:13;8.63;;;5.70;;
20441;SDS011;10380;52.102;20.614;2024-02-23T10:48:44;6.30;;;4.77;;
20441;SDS011;10380;52.102;20.614;2024-02-23T10:51:13;9.03;;;5.90;;
20441;SDS011;10380;52.102;20.614;2024-02-23T10:53:45;7.73;;;5.30;;
20441;SDS011;10380;52.102;20.614;2024-02-23T10:56:14;7.00;;;6.03;;
20441;SDS011;10380;52.102;20.614;2024-02-23T10:58:41;9.73;;;6.80;;
20441;SDS011;10380;52.102;20.614;2024-02-23T11:01:08;6.37;;;5.53;;
20441;SDS011;10380;52.102;20.614;2024-02-23T11:03:37;8.83;;;5.93;;
20441;SDS011;10380;52.102;20.614;2024-02-23T11:06:07;7.93;;;6.87;;
20441;SDS011;10380;52.102;20.614;2024-02-23T11:08:35;7.20;;;6.37;;
20441;SDS011;10380;52.102;20.614;2024-02-23T11:11:08;10.10;;;5.97;;
20441;SDS011;10380;52.102;20.614;2024-02-23T11:16:05;8.03;;;6.23;;
20441;SDS011;10380;52.102;20.614;2024-02-23T11:18:34;8.50;;;6.70;;
20441;SDS011;10380;52.102;20.614;2024-02-23T11:21:03;8.60;;;7.20;;
20441;SDS011;10380;52.102;20.614;2024-02-23T11:23:44;8.03;;;6.00;;
20441;SDS011;10380;52.102;20.614;2024-02-23T11:26:14;8.27;;;7.13;;
20441;SDS011;10380;52.102;20.614;2024-02-23T11:28:51;8.53;;;6.13;;
20441;SDS011;10380;52.102;20.614;2024-02-23T11:31:23;10.17;;;8.10;;
20441;SDS011;10380;52.102;20.614;2024-02-23T11:33:54;11.17;;;6.23;;
20441;SDS011;10380;52.102;20.614;2024-02-23T11:36:23;7.47;;;6.20;;
20441;SDS011;10380;52.102;20.614;2024-02-23T11:38:58;9.20;;;6.30;;
20441;SDS011;10380;52.102;20.614;2024-02-23T11:41:27;8.10;;;6.30;;
20441;SDS011;10380;52.102;20.614;2024-02-23T11:43:55;11.77;;;7.77;;
20441;SDS011;10380;52.102;20.614;2024-02-23T11:46:24;9.73;;;6.93;;
20441;SDS011;10380;52.102;20.614;2024-02-23T11:48:51;8.30;;;6.53;;
20441;SDS011;10380;52.102;20.614;2024-02-23T11:51:22;6.77;;;5.97;;
20441;SDS011;10380;52.102;20.614;2024-02-23T11:53:50;8.80;;;6.20;;
20441;SDS011;10380;52.102;20.614;2024-02-23T11:56:18;8.43;;;6.20;;
20441;SDS011;10380;52.102;20.614;2024-02-23T11:58:46;7.17;;;5.90;;
20441;SDS011;10380;52.102;20.614;2024-02-23T12:01:13;7.10;;;5.30;;
20441;SDS011;10380;52.102;20.614;2024-02-23T12:03:40;7.87;;;6.20;;
20441;SDS011;10380;52.102;20.614;2024-02-23T12:06:10;9.67;;;6.37;;
20441;SDS011;10380;52.102;20.614;2024-02-23T12:08:37;6.83;;;6.13;;
20441;SDS011;10380;52.102;20.614;2024-02-23T12:11:05;8.13;;;6.67;;
20441;SDS011;10380;52.102;20.614;2024-02-23T12:13:38;8.37;;;5.50;;
20441;SDS011;10380;52.102;20.614;2024-02-23T12:16:07;7.93;;;6.33;;
20441;SDS011;10380;52.102;20.614;2024-02-23T12:18:35;8.50;;;6.60;;
20441;SDS011;10380;52.102;20.614;2024-02-23T12:21:05;7.63;;;6.47;;
20441;SDS011;10380;52.102;20.614;2024-02-23T12:23:44;8.47;;;6.50;;
20441;SDS011;10380;52.102;20.614;2024-02-23T12:26:13;9.50;;;6.73;;
20441;SDS011;10380;52.102;20.614;2024-02-23T12:28:41;7.80;;;7.00;;
20441;SDS011;10380;52.102;20.614;2024-02-23T12:31:09;9.17;;;6.43;;
20441;SDS011;10380;52.102;20.614;2024-02-23T12:33:37;8.20;;;6.27;;
20441;SDS011;10380;52.102;20.614;2024-02-23T12:36:08;8.70;;;7.20;;
20441;SDS011;10380;52.102;20.614;2024-02-23T12:38:37;7.20;;;6.50;;
20441;SDS011;10380;52.102;20.614;2024-02-23T12:41:04;9.03;;;7.27;;
20441;SDS011;10380;52.102;20.614;2024-02-23T12:43:31;10.03;;;7.10;;
20441;SDS011;10380;52.102;20.614;2024-02-23T12:45:59;11.30;;;7.20;;
20441;SDS011;10380;52.102;20.614;2024-02-23T12:48:27;8.33;;;6.63;;
20441;SDS011;10380;52.102;20.614;2024-02-23T12:50:54;9.43;;;7.10;;
20441;SDS011;10380;52.102;20.614;2024-02-23T12:53:37;13.00;;;7.83;;
20441;SDS011;10380;52.102;20.614;2024-02-23T12:56:06;7.93;;;7.13;;
20441;SDS011;10380;52.102;20.614;2024-02-23T12:58:35;10.50;;;6.93;;
20441;SDS011;10380;52.102;20.614;2024-02-23T13:01:03;8.50;;;6.77;;
20441;SDS011;10380;52.102;20.614;2024-02-23T13:03:31;9.00;;;7.00;;
20441;SDS011;10380;52.102;20.614;2024-02-23T13:05:58;8.53;;;7.17;;
20441;SDS011;10380;52.102;20.614;2024-02-23T13:08:25;8.63;;;7.10;;
20441;SDS011;10380;52.102;20.614;2024-02-23T13:10:53;11.73;;;7.50;;
20441;SDS011;10380;52.102;20.614;2024-02-23T13:13:21;10.43;;;7.77;;
20441;SDS011;10380;52.102;20.614;2024-02-23T13:15:49;11.23;;;7.70;;
20441;SDS011;10380;52.102;20.614;2024-02-23T13:18:16;10.37;;;7.87;;
20441;SDS011;10380;52.102;20.614;2024-02-23T13:20:44;8.47;;;7.63;;
20441;SDS011;10380;52.102;20.614;2024-02-23T13:23:11;11.10;;;8.13;;
20441;SDS011;10380;52.102;20.614;2024-02-23T13:25:39;11.60;;;8.53;;
20441;SDS011;10380;52.102;20.614;2024-02-23T13:28:06;9.33;;;7.23;;
20441;SDS011;10380;52.102;20.614;2024-02-23T13:30:35;11.07;;;8.23;;
20441;SDS011;10380;52.102;20.614;2024-02-23T13:33:03;9.17;;;7.10;;
20441;SDS011;10380;52.102;20.614;2024-02-23T13:35:31;8.80;;;7.70;;
20441;SDS011;10380;52.102;20.614;2024-02-23T13:37:59;8.77;;;7.10;;
20441;SDS011;10380;52.102;20.614;2024-02-23T13:40:26;8.93;;;7.50;;
20441;SDS011;10380;52.102;20.614;2024-02-23T13:42:53;12.57;;;8.10;;
20441;SDS011;10380;52.102;20.614;2024-02-23T13:45:20;13.23;;;8.70;;
20441;SDS011;10380;52.102;20.614;2024-02-23T13:47:59;11.10;;;8.30;;
20441;SDS011;10380;52.102;20.614;2024-02-23T13:50:28;9.27;;;7.60;;
20441;SDS011;10380;52.102;20.614;2024-02-23T13:52:56;11.67;;;7.90;;
20441;SDS011;10380;52.102;20.614;2024-02-23T13:55:24;13.57;;;8.77;;
20441;SDS011;10380;52.102;20.614;2024-02-23T13:57:51;11.40;;;8.23;;
20441;SDS011;10380;52.102;20.614;2024-02-23T14:00:18;10.83;;;8.67;;
20441;SDS011;10380;52.102;20.614;2024-02-23T14:02:46;11.40;;;8.30;;
20441;SDS011;10380;52.102;20.614;2024-02-23T14:05:14;11.13;;;8.20;;
20441;SDS011;10380;52.102;20.614;2024-02-23T14:07:44;11.73;;;8.90;;
20441;SDS011;10380;52.102;20.614;2024-02-23T14:10:11;10.43;;;8.50;;
20441;SDS011;10380;52.102;20.614;2024-02-23T14:12:38;12.23;;;9.73;;
20441;SDS011;10380;52.102;20.614;2024-02-23T14:15:06;11.53;;;9.57;;
20441;SDS011;10380;52.102;20.614;2024-02-23T14:17:34;10.03;;;8.97;;
20441;SDS011;10380;52.102;20.614;2024-02-23T14:20:02;12.07;;;9.53;;
20441;SDS011;10380;52.102;20.614;2024-02-23T14:22:30;11.20;;;8.93;;
20441;SDS011;10380;52.102;20.614;2024-02-23T14:24:58;12.90;;;10.40;;
20441;SDS011;10380;52.102;20.614;2024-02-23T14:27:25;14.10;;;11.20;;
20441;SDS011;10380;52.102;20.614;2024-02-23T14:29:57;13.17;;;11.67;;
20441;SDS011;10380;52.102;20.614;2024-02-23T14:32:25;15.70;;;10.60;;
20441;SDS011;10380;52.102;20.614;2024-02-23T14:34:52;14.00;;;10.47;;
20441;SDS011;10380;52.102;20.614;2024-02-23T14:37:19;15.93;;;11.57;;
20441;SDS011;10380;52.102;20.614;2024-02-23T14:39:46;14.47;;;11.17;;